createdAt,value
2023-03-29T00:00:46.354Z,6.31
2023-03-29T00:01:48.158Z,6.19
2023-03-29T00:02:50.183Z,6.28
2023-03-29T00:03:54.517Z,6.32
2023-03-29T00:04:57.680Z,6.38
2023-03-29T00:06:03.215Z,6.40
2023-03-29T00:07:05.059Z,6.40
2023-03-29T00:08:07.385Z,6.30
2023-03-29T00:09:10.188Z,6.39
2023-03-29T00:10:13.129Z,6.42
2023-03-29T00:11:17.931Z,6.45
2023-03-29T00:12:19.784Z,6.48
2023-03-29T00:13:21.468Z,6.47
2023-03-29T00:14:23.082Z,6.36
2023-03-29T00:15:24.888Z,6.48
2023-03-29T00:16:27.018Z,6.50
2023-03-29T00:17:28.963Z,6.52
2023-03-29T00:18:30.622Z,6.38
2023-03-29T00:19:35.680Z,6.33
2023-03-29T00:20:37.491Z,6.30
2023-03-29T00:21:41.538Z,6.06
2023-03-29T00:22:46.820Z,6.21
2023-03-29T00:23:50.926Z,6.16
2023-03-29T00:24:54.149Z,6.16
2023-03-29T00:25:56.562Z,6.12
2023-03-29T00:26:58.377Z,6.05
2023-03-29T00:28:00.015Z,5.81
2023-03-29T00:29:01.723Z,5.87
2023-03-29T00:30:05.574Z,5.77
2023-03-29T00:31:13.035Z,5.95
2023-03-29T00:32:15.586Z,5.96
2023-03-29T00:33:20.586Z,5.93
2023-03-29T00:34:30.625Z,5.98
2023-03-29T00:35:32.587Z,5.96
2023-03-29T00:36:34.630Z,6.02
2023-03-29T00:37:36.879Z,6.08
2023-03-29T00:38:39.299Z,6.10
2023-03-29T00:39:42.065Z,6.11
2023-03-29T00:40:47.020Z,6.03
2023-03-29T00:41:50.340Z,6.07
2023-03-29T00:42:52.182Z,6.11
2023-03-29T00:43:58.253Z,5.95
2023-03-29T00:45:06.175Z,6.08
2023-03-29T00:46:09.044Z,6.09
2023-03-29T00:47:13.531Z,6.01
2023-03-29T00:48:24.379Z,5.98
2023-03-29T00:49:26.319Z,5.97
2023-03-29T00:50:39.443Z,6.00
2023-03-29T00:51:42.678Z,6.05
2023-03-29T00:52:48.672Z,6.07
2023-03-29T00:53:55.599Z,6.09
2023-03-29T00:55:02.029Z,6.05
2023-03-29T00:56:18.452Z,6.00
2023-03-29T00:57:21.715Z,5.99
2023-03-29T00:58:38.232Z,5.96
2023-03-29T00:59:44.680Z,6.03
2023-03-29T01:00:57.843Z,6.06
2023-03-29T01:02:05.320Z,6.10
2023-03-29T01:03:13.891Z,6.12
2023-03-29T01:04:29.250Z,6.11
2023-03-29T01:05:39.273Z,6.13
2023-03-29T01:06:43.378Z,6.17
2023-03-29T01:07:57.949Z,6.03
2023-03-29T01:09:03.106Z,6.12
2023-03-29T01:10:12.585Z,6.14
2023-03-29T01:11:22.229Z,6.16
2023-03-29T01:12:31.092Z,6.15
2023-03-29T01:13:46.534Z,6.12
2023-03-29T01:15:01.506Z,6.13
2023-03-29T01:16:04.069Z,6.12
2023-03-29T01:17:06.944Z,6.13
2023-03-29T01:18:09.539Z,6.14
2023-03-29T01:19:15.898Z,6.18
2023-03-29T01:20:30.776Z,6.13
2023-03-29T01:21:42.694Z,6.13
2023-03-29T01:23:14.318Z,6.14
2023-03-29T01:24:38.208Z,6.08
2023-03-29T01:26:17.308Z,5.92
2023-03-29T01:27:55.731Z,5.79
2023-03-29T01:29:06.958Z,5.63
2023-03-29T01:30:14.194Z,5.56
2023-03-29T01:31:25.183Z,5.61
2023-03-29T01:32:36.608Z,5.65
2023-03-29T01:33:47.624Z,5.63
2023-03-29T01:34:56.766Z,5.68
2023-03-29T01:36:19.066Z,5.53
2023-03-29T01:37:26.695Z,5.54
2023-03-29T01:38:43.188Z,5.42
2023-03-29T01:39:46.254Z,5.35
2023-03-29T01:40:48.008Z,5.34
2023-03-29T01:42:04.452Z,5.34
2023-03-29T01:43:23.467Z,5.53
2023-03-29T01:44:56.431Z,5.28
2023-03-29T01:46:01.700Z,5.39
2023-03-29T01:47:21.624Z,5.58
2023-03-29T01:48:31.535Z,5.66
2023-03-29T01:49:52.207Z,5.63
2023-03-29T01:51:04.587Z,5.27
2023-03-29T01:52:06.261Z,5.32
2023-03-29T01:53:14.034Z,5.55
2023-03-29T01:54:26.311Z,5.62
2023-03-29T01:55:41.580Z,5.65
2023-03-29T01:56:45.604Z,5.67
2023-03-29T01:57:49.209Z,5.71
2023-03-29T01:58:58.306Z,5.73
2023-03-29T02:00:05.423Z,5.77
2023-03-29T02:01:19.086Z,5.73
2023-03-29T02:02:23.132Z,5.76
2023-03-29T02:03:28.176Z,5.76
2023-03-29T02:04:38.529Z,5.77
2023-03-29T02:05:46.005Z,5.78
2023-03-29T02:06:50.157Z,5.81
2023-03-29T02:07:52.946Z,5.83
2023-03-29T02:08:55.773Z,5.83
2023-03-29T02:09:58.872Z,5.84
2023-03-29T02:11:01.541Z,5.86
2023-03-29T02:12:05.001Z,5.87
2023-03-29T02:13:10.079Z,5.83
2023-03-29T02:14:13.849Z,5.83
2023-03-29T02:15:19.402Z,5.82
2023-03-29T02:16:21.268Z,5.77
2023-03-29T02:17:25.806Z,5.48
2023-03-29T02:18:27.781Z,5.70
2023-03-29T02:19:29.762Z,5.78
2023-03-29T02:20:40.579Z,5.83
2023-03-29T02:21:48.389Z,5.87
2023-03-29T02:23:02.109Z,5.87
2023-03-29T02:24:11.811Z,5.92
2023-03-29T02:25:13.799Z,5.94
2023-03-29T02:26:17.588Z,5.98
2023-03-29T02:27:25.370Z,6.00
2023-03-29T02:28:28.563Z,6.03
2023-03-29T02:29:30.701Z,6.04
2023-03-29T02:30:57.731Z,5.98
2023-03-29T02:32:21.968Z,5.91
2023-03-29T02:33:52.096Z,5.85
2023-03-29T02:35:16.845Z,5.83
2023-03-29T02:36:27.413Z,5.93
2023-03-29T02:37:32.734Z,5.90
2023-03-29T02:38:39.110Z,5.86
2023-03-29T02:39:42.053Z,5.84
2023-03-29T02:40:46.786Z,5.82
2023-03-29T02:41:51.113Z,5.81
2023-03-29T02:42:55.639Z,5.84
2023-03-29T02:44:00.409Z,5.83
2023-03-29T02:45:04.962Z,5.79
2023-03-29T02:46:08.003Z,5.78
2023-03-29T02:47:15.633Z,5.75
2023-03-29T02:48:20.845Z,5.80
2023-03-29T02:49:23.599Z,5.78
2023-03-29T02:50:30.716Z,5.77
2023-03-29T02:51:34.363Z,5.76
2023-03-29T02:52:43.478Z,5.74
2023-03-29T02:53:52.610Z,5.78
2023-03-29T02:54:55.871Z,5.81
2023-03-29T02:56:02.337Z,5.82
2023-03-29T02:57:07.586Z,5.68
2023-03-29T02:58:09.331Z,5.70
2023-03-29T02:59:14.399Z,5.72
2023-03-29T03:00:18.820Z,5.74
2023-03-29T03:01:20.782Z,5.79
2023-03-29T03:02:27.818Z,5.83
2023-03-29T03:03:33.090Z,5.85
2023-03-29T03:04:36.357Z,5.77
2023-03-29T03:05:39.140Z,5.78
2023-03-29T03:06:41.695Z,5.81
2023-03-29T03:07:46.114Z,5.77
2023-03-29T03:08:48.647Z,5.68
2023-03-29T03:09:50.242Z,5.64
2023-03-29T03:10:52.580Z,5.79
2023-03-29T03:11:54.334Z,5.81
2023-03-29T03:12:58.936Z,5.75
2023-03-29T03:14:00.956Z,5.35
2023-03-29T03:15:08.004Z,5.43
2023-03-29T03:16:13.276Z,5.43
2023-03-29T03:17:18.746Z,5.55
2023-03-29T03:18:22.600Z,5.62
2023-03-29T03:19:24.806Z,5.68
2023-03-29T03:20:26.573Z,5.56
2023-03-29T03:21:30.085Z,5.48
2023-03-29T03:22:35.048Z,5.33
2023-03-29T03:23:39.716Z,5.45
2023-03-29T03:24:41.961Z,5.56
2023-03-29T03:25:45.997Z,5.59
2023-03-29T03:26:49.959Z,5.63
2023-03-29T03:27:54.207Z,5.68
2023-03-29T03:29:01.189Z,5.67
2023-03-29T03:30:23.327Z,5.74
2023-03-29T03:31:30.796Z,5.78
2023-03-29T03:32:50.002Z,5.78
2023-03-29T03:34:14.203Z,5.84
2023-03-29T03:35:23.758Z,5.88
2023-03-29T03:36:26.285Z,5.83
2023-03-29T03:37:29.337Z,5.86
2023-03-29T03:38:31.125Z,5.76
2023-03-29T03:39:34.650Z,5.87
2023-03-29T03:40:39.370Z,5.85
2023-03-29T03:41:41.139Z,5.83
2023-03-29T03:42:42.970Z,5.77
2023-03-29T03:43:48.776Z,5.81
2023-03-29T03:44:51.078Z,5.83
2023-03-29T03:46:19.228Z,5.84
2023-03-29T03:47:21.451Z,5.80
2023-03-29T03:48:25.801Z,5.79
2023-03-29T03:49:40.922Z,5.78
2023-03-29T03:50:49.037Z,5.78
2023-03-29T03:51:52.592Z,5.79
2023-03-29T03:52:54.569Z,5.78
2023-03-29T03:53:56.723Z,5.67
2023-03-29T03:55:10.890Z,5.61
2023-03-29T03:56:34.212Z,5.57
2023-03-29T03:57:39.086Z,5.65
2023-03-29T03:58:46.283Z,5.68
2023-03-29T03:59:49.205Z,5.70
2023-03-29T04:00:55.973Z,5.73
2023-03-29T04:02:11.147Z,5.72
2023-03-29T04:03:18.021Z,5.72
2023-03-29T04:04:19.914Z,5.73
2023-03-29T04:05:46.440Z,5.73
2023-03-29T04:06:50.565Z,5.77
2023-03-29T04:08:12.581Z,5.78
2023-03-29T04:09:33.507Z,5.67
2023-03-29T04:10:56.763Z,5.78
2023-03-29T04:12:03.547Z,5.79
2023-03-29T04:13:05.959Z,5.83
2023-03-29T04:14:11.457Z,5.85
2023-03-29T04:15:27.046Z,5.86
2023-03-29T04:16:37.611Z,5.82
2023-03-29T04:18:00.637Z,5.80
2023-03-29T04:19:08.326Z,5.79
2023-03-29T04:20:12.367Z,5.83
2023-03-29T04:21:16.972Z,5.82
2023-03-29T04:22:19.760Z,5.80
2023-03-29T04:23:21.454Z,5.84
2023-03-29T04:24:24.941Z,5.86
2023-03-29T04:25:46.601Z,5.83
2023-03-29T04:27:17.332Z,5.85
2023-03-29T04:28:19.596Z,5.86
2023-03-29T04:29:39.215Z,5.87
2023-03-29T04:44:28.931Z,5.48
2023-03-29T04:45:33.280Z,5.55
2023-03-29T04:46:58.333Z,5.56
2023-03-29T04:48:26.577Z,5.59
2023-03-29T04:49:29.018Z,5.62
2023-03-29T04:50:30.922Z,5.66
2023-03-29T04:51:33.181Z,5.68
2023-03-29T04:52:35.532Z,5.71
2023-03-29T04:53:39.332Z,5.73
2023-03-29T04:54:41.166Z,5.74
2023-03-29T04:55:55.617Z,5.77
2023-03-29T04:57:17.081Z,5.76
2023-03-29T04:58:32.226Z,5.74
2023-03-29T04:59:35.143Z,5.74
2023-03-29T05:00:42.977Z,5.70
2023-03-29T05:02:05.327Z,5.70
2023-03-29T05:03:07.429Z,5.73
2023-03-29T05:04:14.177Z,5.70
2023-03-29T05:05:29.267Z,5.64
2023-03-29T05:06:37.299Z,5.69
2023-03-29T05:07:41.150Z,5.71
2023-03-29T05:08:44.690Z,5.70
2023-03-29T05:10:07.065Z,5.68
2023-03-29T05:11:10.859Z,5.64
2023-03-29T05:12:12.970Z,5.57
2023-03-29T05:13:26.461Z,5.58
2023-03-29T05:14:28.056Z,5.51
2023-03-29T05:15:32.737Z,5.61
2023-03-29T05:16:35.650Z,5.62
2023-03-29T05:17:37.788Z,5.63
2023-03-29T05:18:43.735Z,5.55
2023-03-29T05:19:48.422Z,5.46
2023-03-29T05:20:53.120Z,5.54
2023-03-29T05:21:56.124Z,5.45
2023-03-29T05:23:00.514Z,5.48
2023-03-29T05:24:31.034Z,5.51
2023-03-29T05:25:36.168Z,5.57
2023-03-29T05:26:38.473Z,5.63
2023-03-29T05:27:40.483Z,5.68
2023-03-29T05:28:44.254Z,5.73
2023-03-29T05:29:46.644Z,5.74
2023-03-29T05:31:11.288Z,5.79
2023-03-29T05:32:15.001Z,5.82
2023-03-29T05:33:19.541Z,5.86
2023-03-29T05:34:21.342Z,5.78
2023-03-29T05:35:30.318Z,5.71
2023-03-29T05:36:33.862Z,5.66
2023-03-29T05:37:35.778Z,5.71
2023-03-29T05:38:41.121Z,5.75
2023-03-29T05:39:43.177Z,5.78
2023-03-29T05:40:44.998Z,5.83
2023-03-29T05:42:19.243Z,5.87
2023-03-29T05:43:28.241Z,5.82
2023-03-29T05:44:30.382Z,5.97
2023-03-29T05:45:40.447Z,6.05
2023-03-29T05:46:42.188Z,6.08
2023-03-29T05:47:48.528Z,6.13
2023-03-29T05:48:50.609Z,6.16
2023-03-29T05:49:53.312Z,6.18
2023-03-29T05:50:59.412Z,6.16
2023-03-29T05:52:04.094Z,6.16
2023-03-29T05:53:08.000Z,6.18
2023-03-29T05:54:09.939Z,6.19
2023-03-29T05:55:11.975Z,6.19
2023-03-29T05:56:16.295Z,6.22
2023-03-29T05:57:18.474Z,6.23
2023-03-29T05:58:21.673Z,6.12
2023-03-29T05:59:24.547Z,6.24
2023-03-29T06:00:30.025Z,6.21
2023-03-29T06:01:46.966Z,6.18
2023-03-29T06:02:52.845Z,6.19
2023-03-29T06:03:57.896Z,6.21
2023-03-29T06:05:07.085Z,6.22
2023-03-29T06:06:16.458Z,6.20
2023-03-29T06:07:18.443Z,6.25
2023-03-29T06:08:35.747Z,6.22
2023-03-29T06:09:42.765Z,6.20
2023-03-29T06:10:45.723Z,6.17
2023-03-29T06:12:21.028Z,6.11
2023-03-29T06:13:34.078Z,6.12
2023-03-29T06:14:36.488Z,6.17
2023-03-29T06:15:57.364Z,6.22
2023-03-29T06:17:01.871Z,6.24
2023-03-29T06:18:04.584Z,6.18
2023-03-29T06:19:07.329Z,6.12
2023-03-29T06:20:11.782Z,6.15
2023-03-29T06:21:16.860Z,6.15
2023-03-29T06:22:18.498Z,6.20
2023-03-29T06:23:21.369Z,5.98
2023-03-29T06:24:25.020Z,6.10
2023-03-29T06:25:34.152Z,6.08
2023-03-29T06:26:38.667Z,6.09
2023-03-29T06:27:40.375Z,6.14
2023-03-29T06:28:42.200Z,6.02
2023-03-29T06:29:43.958Z,6.16
2023-03-29T06:30:46.045Z,6.09
2023-03-29T06:31:48.288Z,6.10
2023-03-29T06:33:10.619Z,6.27
2023-03-29T06:34:32.787Z,6.27
2023-03-29T06:35:50.403Z,6.45
2023-03-29T06:36:57.687Z,6.53
2023-03-29T06:37:59.386Z,6.58
2023-03-29T06:39:08.769Z,6.65
2023-03-29T06:40:29.408Z,6.63
2023-03-29T06:41:33.411Z,6.65
2023-03-29T06:42:43.180Z,6.68
2023-03-29T06:44:11.652Z,6.70
2023-03-29T06:45:29.317Z,6.84
2023-03-29T06:46:34.216Z,6.96
2023-03-29T06:47:40.945Z,7.07
2023-03-29T06:48:42.765Z,7.13
2023-03-29T06:49:44.462Z,7.09
2023-03-29T06:51:02.227Z,7.25
2023-03-29T06:52:05.947Z,7.34
2023-03-29T06:53:07.910Z,7.43
2023-03-29T06:54:10.370Z,7.42
2023-03-29T06:55:17.753Z,7.42
2023-03-29T06:56:19.544Z,7.45
2023-03-29T06:57:28.601Z,7.46
2023-03-29T06:58:30.547Z,7.46
2023-03-29T06:59:43.175Z,7.54
2023-03-29T07:00:51.765Z,7.55
2023-03-29T07:02:02.766Z,7.58
2023-03-29T07:03:27.940Z,7.58
2023-03-29T07:04:32.232Z,7.55
2023-03-29T07:05:48.381Z,7.60
2023-03-29T07:07:01.474Z,7.63
2023-03-29T07:08:07.813Z,7.65
2023-03-29T07:09:32.310Z,7.70
2023-03-29T07:10:53.385Z,7.76
2023-03-29T07:12:01.451Z,7.85
2023-03-29T07:13:03.040Z,7.73
2023-03-29T07:14:04.724Z,7.85
2023-03-29T07:15:07.777Z,7.87
2023-03-29T07:16:32.685Z,7.91
2023-03-29T07:17:50.569Z,7.94
2023-03-29T07:18:52.723Z,7.99
2023-03-29T07:20:17.838Z,8.02
2023-03-29T07:21:22.896Z,8.08
2023-03-29T07:22:24.561Z,8.15
2023-03-29T07:23:30.943Z,8.23
2023-03-29T07:24:32.609Z,8.17
2023-03-29T07:25:34.352Z,8.33
2023-03-29T07:26:36.555Z,8.45
2023-03-29T07:27:40.274Z,8.49
2023-03-29T07:28:43.155Z,8.56
2023-03-29T07:29:45.094Z,8.57
2023-03-29T07:30:46.881Z,8.65
2023-03-29T07:31:51.812Z,8.72
2023-03-29T07:33:14.482Z,8.69
2023-03-29T07:34:37.172Z,8.74
2023-03-29T07:35:43.451Z,8.82
2023-03-29T07:36:45.204Z,8.81
2023-03-29T07:37:47.578Z,8.66
2023-03-29T07:38:49.934Z,8.80
2023-03-29T07:39:54.593Z,8.78
2023-03-29T07:41:10.738Z,8.78
2023-03-29T07:42:28.922Z,8.81
2023-03-29T07:43:30.885Z,8.85
2023-03-29T07:44:33.606Z,8.84
2023-03-29T07:45:35.571Z,8.88
2023-03-29T07:46:44.525Z,8.76
2023-03-29T07:47:53.636Z,8.79
2023-03-29T07:48:57.761Z,8.84
2023-03-29T07:49:59.752Z,8.84
2023-03-29T07:51:02.001Z,8.86
2023-03-29T07:52:09.164Z,8.87
2023-03-29T07:53:17.100Z,8.87
2023-03-29T07:54:18.880Z,8.91
2023-03-29T07:55:47.581Z,8.94
2023-03-29T07:57:10.977Z,9.02
2023-03-29T07:58:20.159Z,9.11
2023-03-29T07:59:22.286Z,9.18
2023-03-29T08:00:45.892Z,9.23
2023-03-29T08:02:11.055Z,9.30
2023-03-29T08:03:24.903Z,9.42
2023-03-29T08:04:28.929Z,9.47
2023-03-29T08:05:49.560Z,9.48
2023-03-29T08:06:52.424Z,9.57
2023-03-29T08:07:59.406Z,9.63
2023-03-29T08:09:14.705Z,9.71
2023-03-29T08:10:21.108Z,9.68
2023-03-29T08:11:46.779Z,9.58
2023-03-29T08:12:54.510Z,9.60
2023-03-29T08:14:03.358Z,9.64
2023-03-29T08:15:28.241Z,9.70
2023-03-29T08:16:30.046Z,9.76
2023-03-29T08:17:41.690Z,9.68
2023-03-29T08:18:45.856Z,9.72
2023-03-29T08:19:51.007Z,9.78
2023-03-29T08:20:55.951Z,9.79
2023-03-29T08:21:57.544Z,9.71
2023-03-29T08:23:01.323Z,9.90
2023-03-29T08:24:17.584Z,9.97
2023-03-29T08:25:23.943Z,9.94
2023-03-29T08:26:28.290Z,9.92
2023-03-29T08:27:33.106Z,9.94
2023-03-29T08:28:35.711Z,10.03
2023-03-29T08:29:37.342Z,9.92
2023-03-29T08:30:39.707Z,10.08
2023-03-29T08:31:41.634Z,10.12
2023-03-29T08:32:47.702Z,10.06
2023-03-29T08:33:51.575Z,10.22
2023-03-29T08:35:16.053Z,10.26
2023-03-29T08:36:26.431Z,10.29
2023-03-29T08:37:32.680Z,10.35
2023-03-29T08:38:35.465Z,10.44
2023-03-29T08:39:38.127Z,10.50
2023-03-29T08:41:31.888Z,10.58
2023-03-29T08:43:09.821Z,10.68
2023-03-29T08:45:01.351Z,10.77
2023-03-29T08:46:16.435Z,10.88
2023-03-29T08:47:32.853Z,10.96
2023-03-29T08:48:47.478Z,11.01
2023-03-29T08:49:55.603Z,11.12
2023-03-29T08:51:15.469Z,11.17
2023-03-29T08:52:25.797Z,11.23
2023-03-29T08:53:44.152Z,11.30
2023-03-29T08:55:31.985Z,11.33
2023-03-29T08:56:54.383Z,11.40
2023-03-29T08:58:08.454Z,11.46
2023-03-29T08:59:22.752Z,11.50
2023-03-29T09:00:28.537Z,11.58
2023-03-29T09:01:35.349Z,11.64
2023-03-29T09:02:38.278Z,11.75
2023-03-29T09:03:50.294Z,11.81
2023-03-29T09:05:29.395Z,11.81
2023-03-29T09:06:58.224Z,11.93
2023-03-29T09:08:13.433Z,11.94
2023-03-29T09:09:20.701Z,11.98
2023-03-29T09:10:53.544Z,11.99
2023-03-29T09:12:23.264Z,11.96
2023-03-29T09:13:32.781Z,12.08
2023-03-29T09:14:48.421Z,12.08
2023-03-29T09:16:01.405Z,12.13
2023-03-29T09:17:32.549Z,12.22
2023-03-29T09:19:06.337Z,12.07
2023-03-29T09:20:22.857Z,12.02
2023-03-29T09:21:46.459Z,12.15
2023-03-29T09:23:27.272Z,12.10
2023-03-29T09:25:21.285Z,12.22
2023-03-29T09:26:47.646Z,12.30
2023-03-29T09:28:32.116Z,12.35
2023-03-29T09:30:12.259Z,12.31
2023-03-29T09:31:37.186Z,12.40
2023-03-29T09:32:52.583Z,12.51
2023-03-29T09:33:59.771Z,12.58
2023-03-29T09:35:18.428Z,12.56
2023-03-29T09:36:40.652Z,12.52
2023-03-29T09:37:42.548Z,12.58
2023-03-29T09:38:50.903Z,12.67
2023-03-29T09:39:53.526Z,12.73
2023-03-29T09:41:16.394Z,12.75
2023-03-29T09:42:19.866Z,12.69
2023-03-29T09:43:36.180Z,12.67
2023-03-29T09:45:08.867Z,12.73
2023-03-29T09:46:34.327Z,12.80
2023-03-29T09:47:46.268Z,12.88
2023-03-29T09:48:50.201Z,12.93
2023-03-29T09:49:57.592Z,12.98
2023-03-29T09:51:01.516Z,13.06
2023-03-29T09:52:09.196Z,13.08
2023-03-29T09:53:11.039Z,13.15
2023-03-29T09:54:20.755Z,13.15
2023-03-29T09:55:44.880Z,13.19
2023-03-29T09:57:13.841Z,13.23
2023-03-29T09:58:27.632Z,13.23
2023-03-29T09:59:30.696Z,13.27
2023-03-29T10:00:34.749Z,13.29
2023-03-29T10:01:41.983Z,13.26
2023-03-29T10:02:53.747Z,13.25
2023-03-29T10:04:01.560Z,13.29
2023-03-29T10:05:07.461Z,13.28
2023-03-29T10:06:12.205Z,13.30
2023-03-29T10:07:20.660Z,13.35
2023-03-29T10:08:50.887Z,13.36
2023-03-29T10:09:58.417Z,13.23
2023-03-29T10:11:03.686Z,12.89
2023-03-29T10:12:07.094Z,12.89
2023-03-29T10:13:46.097Z,12.84
2023-03-29T10:14:57.493Z,12.64
2023-03-29T10:16:04.451Z,12.66
2023-03-29T10:17:22.301Z,12.62
2023-03-29T10:18:27.675Z,12.67
2023-03-29T10:19:34.992Z,12.67
2023-03-29T10:20:40.166Z,12.74
2023-03-29T10:21:42.411Z,12.74
2023-03-29T10:22:54.321Z,12.78
2023-03-29T10:23:59.542Z,12.65
2023-03-29T10:25:02.141Z,12.86
2023-03-29T10:26:23.999Z,12.91
2023-03-29T10:27:30.786Z,12.94
2023-03-29T10:28:35.073Z,13.04
2023-03-29T10:29:41.057Z,13.07
2023-03-29T10:30:45.912Z,13.09
2023-03-29T10:31:47.970Z,13.09
2023-03-29T10:32:58.033Z,13.11
2023-03-29T10:34:06.335Z,13.12
2023-03-29T10:35:12.974Z,13.14
2023-03-29T10:36:15.464Z,13.18
2023-03-29T10:37:19.528Z,13.14
2023-03-29T10:38:24.521Z,13.08
2023-03-29T10:39:29.750Z,13.17
2023-03-29T10:40:36.008Z,13.13
2023-03-29T10:41:37.798Z,13.18
2023-03-29T10:42:49.901Z,13.18
2023-03-29T10:43:52.066Z,13.24
2023-03-29T10:44:59.540Z,13.19
2023-03-29T10:46:19.458Z,13.12
2023-03-29T10:47:25.163Z,13.13
2023-03-29T10:48:30.769Z,13.18
2023-03-29T10:49:41.111Z,13.05
2023-03-29T10:50:48.309Z,13.14
2023-03-29T10:51:52.314Z,13.17
2023-03-29T10:52:56.960Z,13.08
2023-03-29T10:53:59.355Z,13.13
2023-03-29T10:55:01.090Z,13.12
2023-03-29T10:56:16.229Z,13.04
2023-03-29T10:57:56.208Z,13.03
2023-03-29T10:59:16.250Z,13.05
2023-03-29T11:00:33.021Z,12.97
2023-03-29T11:01:42.131Z,13.04
2023-03-29T11:03:17.060Z,12.99
2023-03-29T11:04:19.967Z,13.04
2023-03-29T11:05:46.638Z,13.02
2023-03-29T11:07:28.791Z,13.05
2023-03-29T11:08:36.930Z,13.11
2023-03-29T11:09:57.317Z,13.10
2023-03-29T11:11:35.220Z,13.09
2023-03-29T11:12:40.009Z,13.11
2023-03-29T11:13:59.347Z,13.15
2023-03-29T11:15:20.435Z,13.12
2023-03-29T11:16:31.074Z,13.17
2023-03-29T11:17:44.723Z,13.07
2023-03-29T11:19:09.318Z,13.03
2023-03-29T11:20:43.564Z,13.12
2023-03-29T11:21:45.722Z,13.26
2023-03-29T11:23:16.431Z,13.21
2023-03-29T11:24:50.613Z,13.29
2023-03-29T11:25:54.867Z,13.48
2023-03-29T11:27:07.305Z,13.62
2023-03-29T11:28:35.290Z,13.77
2023-03-29T11:30:06.567Z,13.75
2023-03-29T11:31:27.198Z,13.92
2023-03-29T11:32:51.931Z,14.07
2023-03-29T11:34:06.132Z,14.09
2023-03-29T11:35:42.792Z,14.19
2023-03-29T11:36:57.793Z,14.25
2023-03-29T11:38:19.864Z,14.38
2023-03-29T11:39:41.717Z,14.45
2023-03-29T11:41:20.603Z,14.48
2023-03-29T11:42:32.212Z,14.59
2023-03-29T11:44:02.411Z,14.62
2023-03-29T11:45:06.138Z,14.74
2023-03-29T11:46:11.082Z,14.80
2023-03-29T11:47:37.255Z,14.81
2023-03-29T11:48:55.595Z,14.85
2023-03-29T11:50:03.736Z,14.91
2023-03-29T11:51:15.524Z,14.88
2023-03-29T11:52:29.047Z,14.94
2023-03-29T11:53:43.357Z,14.94
2023-03-29T11:55:18.271Z,14.87
2023-03-29T11:56:29.177Z,14.84
2023-03-29T11:57:56.970Z,14.93
2023-03-29T11:59:04.698Z,15.07
2023-03-29T12:00:22.329Z,15.15
2023-03-29T12:01:31.698Z,15.22
2023-03-29T12:02:40.301Z,15.24
2023-03-29T12:04:02.165Z,15.15
2023-03-29T12:05:13.769Z,15.18
2023-03-29T12:06:34.811Z,15.29
2023-03-29T12:07:43.863Z,15.39
2023-03-29T12:08:56.670Z,15.38
2023-03-29T12:10:16.725Z,15.48
2023-03-29T12:11:18.826Z,15.57
2023-03-29T12:12:48.283Z,15.58
2023-03-29T12:14:03.726Z,15.71
2023-03-29T12:15:11.255Z,15.72
2023-03-29T12:16:32.604Z,15.66
2023-03-29T12:17:41.914Z,15.73
2023-03-29T12:18:48.393Z,15.67
2023-03-29T12:20:01.641Z,15.68
2023-03-29T12:21:11.890Z,15.72
2023-03-29T12:22:13.818Z,15.69
2023-03-29T12:24:20.856Z,15.69
2023-03-29T12:25:38.079Z,15.64
2023-03-29T12:26:46.469Z,15.50
2023-03-29T12:28:04.966Z,15.58
2023-03-29T12:29:21.732Z,15.61
2023-03-29T12:30:27.286Z,15.57
2023-03-29T12:31:32.538Z,15.56
2023-03-29T12:33:05.052Z,15.58
2023-03-29T12:34:35.095Z,15.56
2023-03-29T12:36:04.605Z,15.49
2023-03-29T12:37:52.765Z,15.48
2023-03-29T12:39:31.373Z,15.51
2023-03-29T12:41:02.141Z,15.42
2023-03-29T12:42:53.516Z,15.44
2023-03-29T12:44:23.527Z,15.50
2023-03-29T12:45:48.364Z,15.53
2023-03-29T12:46:59.960Z,15.58
2023-03-29T12:48:01.910Z,15.61
2023-03-29T12:49:19.855Z,15.60
2023-03-29T12:50:28.590Z,15.60
2023-03-29T12:51:33.069Z,15.68
2023-03-29T12:52:36.653Z,15.77
2023-03-29T12:53:50.893Z,15.83
2023-03-29T12:54:57.971Z,15.84
2023-03-29T12:56:02.998Z,15.78
2023-03-29T12:57:45.015Z,15.54
2023-03-29T12:59:05.346Z,15.65
2023-03-29T13:01:25.026Z,15.69
2023-03-29T13:02:37.087Z,15.56
2023-03-29T13:03:49.534Z,15.36
2023-03-29T13:05:01.533Z,15.57
2023-03-29T13:06:05.466Z,15.49
2023-03-29T13:07:16.958Z,15.57
2023-03-29T13:08:35.128Z,15.58
2023-03-29T13:09:53.462Z,15.41
2023-03-29T13:10:59.147Z,15.54
2023-03-29T13:12:08.851Z,15.58
2023-03-29T13:13:26.535Z,15.57
2023-03-29T13:14:31.906Z,15.70
2023-03-29T13:15:35.584Z,15.71
2023-03-29T13:16:40.541Z,15.73
2023-03-29T13:17:43.288Z,15.76
2023-03-29T13:19:13.716Z,15.74
2023-03-29T13:20:43.289Z,15.76
2023-03-29T13:21:55.489Z,15.76
2023-03-29T13:23:03.823Z,15.69
2023-03-29T13:24:37.140Z,15.80
2023-03-29T13:26:00.272Z,15.84
2023-03-29T13:27:05.283Z,15.82
2023-03-29T13:28:37.791Z,15.83
2023-03-29T13:29:51.400Z,15.76
2023-03-29T13:30:54.078Z,15.81
2023-03-29T13:31:58.696Z,15.87
2023-03-29T13:33:09.704Z,15.90
2023-03-29T13:34:11.866Z,15.95
2023-03-29T13:35:26.770Z,15.93
2023-03-29T13:36:58.736Z,15.88
2023-03-29T13:38:03.666Z,15.96
2023-03-29T13:39:16.327Z,16.00
2023-03-29T13:40:33.220Z,16.09
2023-03-29T13:41:41.149Z,16.16
2023-03-29T13:42:43.088Z,16.21
2023-03-29T13:43:54.168Z,16.17
2023-03-29T13:45:13.204Z,16.25
2023-03-29T13:46:41.359Z,16.30
2023-03-29T13:47:58.437Z,16.41
2023-03-29T13:49:19.789Z,16.47
2023-03-29T13:50:36.901Z,16.44
2023-03-29T13:51:42.067Z,16.50
2023-03-29T13:53:11.040Z,16.55
2023-03-29T13:54:13.089Z,16.64
2023-03-29T13:55:26.318Z,16.65
2023-03-29T13:56:55.095Z,16.64
2023-03-29T13:58:04.174Z,16.72
2023-03-29T13:59:15.136Z,16.69
2023-03-29T14:00:23.171Z,16.73
2023-03-29T14:02:02.914Z,16.72
2023-03-29T14:03:14.471Z,16.72
2023-03-29T14:04:21.914Z,16.75
2023-03-29T14:05:31.490Z,16.75
2023-03-29T14:06:37.210Z,16.79
2023-03-29T14:07:45.588Z,16.76
2023-03-29T14:08:49.485Z,16.76
2023-03-29T14:09:51.586Z,16.78
2023-03-29T14:10:54.437Z,16.79
2023-03-29T14:11:58.588Z,16.79
2023-03-29T14:13:03.834Z,16.85
2023-03-29T14:14:08.247Z,16.86
2023-03-29T14:15:21.447Z,16.86
2023-03-29T14:16:31.471Z,16.87
2023-03-29T14:17:36.595Z,16.87
2023-03-29T14:18:42.320Z,16.90
2023-03-29T14:19:44.575Z,16.95
2023-03-29T14:20:53.604Z,16.94
2023-03-29T14:22:01.707Z,16.92
2023-03-29T14:23:19.270Z,16.92
2023-03-29T14:24:23.387Z,16.95
2023-03-29T14:25:29.484Z,16.90
2023-03-29T14:26:33.530Z,16.94
2023-03-29T14:27:37.264Z,16.87
2023-03-29T14:28:46.853Z,16.89
2023-03-29T14:29:51.561Z,16.94
2023-03-29T14:30:54.240Z,16.92
2023-03-29T14:32:13.833Z,16.89
2023-03-29T14:33:38.093Z,16.90
2023-03-29T14:34:40.676Z,16.83
2023-03-29T14:35:42.725Z,16.89
2023-03-29T14:36:46.415Z,16.86
2023-03-29T14:37:48.790Z,16.87
2023-03-29T14:39:01.904Z,16.87
2023-03-29T14:40:08.763Z,17.00
2023-03-29T14:41:10.545Z,16.98
2023-03-29T14:42:16.326Z,16.91
2023-03-29T14:43:22.384Z,17.07
2023-03-29T14:44:33.121Z,17.11
2023-03-29T14:45:37.941Z,17.14
2023-03-29T14:46:43.137Z,17.22
2023-03-29T14:47:47.332Z,17.27
2023-03-29T14:48:49.380Z,17.31
2023-03-29T14:49:51.317Z,17.33
2023-03-29T14:50:53.347Z,17.28
2023-03-29T14:51:57.657Z,17.38
2023-03-29T14:53:02.198Z,17.44
2023-03-29T14:54:05.702Z,17.49
2023-03-29T14:55:11.144Z,17.51
2023-03-29T14:56:18.063Z,17.55
2023-03-29T14:57:24.592Z,17.59
2023-03-29T14:58:32.915Z,17.59
2023-03-29T14:59:34.769Z,17.29
2023-03-29T15:00:42.564Z,17.53
2023-03-29T15:01:44.719Z,17.59
2023-03-29T15:02:54.760Z,17.63
2023-03-29T15:04:03.336Z,17.65
2023-03-29T15:05:07.552Z,17.68
2023-03-29T15:06:10.258Z,17.68
2023-03-29T15:07:14.096Z,17.58
2023-03-29T15:08:21.430Z,17.64
2023-03-29T15:09:29.346Z,17.60
2023-03-29T15:10:36.751Z,17.69
2023-03-29T15:11:40.863Z,17.71
2023-03-29T15:12:42.863Z,17.68
2023-03-29T15:13:46.640Z,17.70
2023-03-29T15:14:51.587Z,17.55
2023-03-29T15:15:58.864Z,17.62
2023-03-29T15:17:04.125Z,17.69
2023-03-29T15:18:08.022Z,17.74
2023-03-29T15:19:19.470Z,17.73
2023-03-29T15:20:26.086Z,17.68
2023-03-29T15:21:36.159Z,17.60
2023-03-29T15:22:39.971Z,17.65
2023-03-29T15:23:56.121Z,17.71
2023-03-29T15:24:58.491Z,17.65
2023-03-29T15:26:09.616Z,17.59
2023-03-29T15:27:15.895Z,17.58
2023-03-29T15:28:32.467Z,17.61
2023-03-29T15:29:37.045Z,17.64
2023-03-29T15:30:54.229Z,17.59
2023-03-29T15:32:04.875Z,17.59
2023-03-29T15:33:15.046Z,17.56
2023-03-29T15:34:26.813Z,17.59
2023-03-29T15:35:28.692Z,17.55
2023-03-29T15:36:31.554Z,17.56
2023-03-29T15:37:33.617Z,17.55
2023-03-29T15:38:43.796Z,17.51